sensor_id;sensor_type;location;lat;lon;timestamp;P1;durP1;ratioP1;P2;durP2;ratioP2
51780;SDS011;37844;57.126;24.288;2023-06-22T00:02:43;23.10;;;12.45;;
51780;SDS011;37844;57.126;24.288;2023-06-22T00:05:26;17.50;;;10.45;;
51780;SDS011;37844;57.126;24.288;2023-06-22T00:08:11;23.63;;;13.55;;
51780;SDS011;37844;57.126;24.288;2023-06-22T00:10:55;20.15;;;11.63;;
51780;SDS011;37844;57.126;24.288;2023-06-22T00:13:39;21.38;;;12.55;;
51780;SDS011;37844;57.126;24.288;2023-06-22T00:16:23;19.02;;;11.43;;
51780;SDS011;37844;57.126;24.288;2023-06-22T00:19:07;23.73;;;12.32;;
51780;SDS011;37844;57.126;24.288;2023-06-22T00:21:51;22.55;;;11.73;;
51780;SDS011;37844;57.126;24.288;2023-06-22T00:24:38;18.55;;;10.13;;
51780;SDS011;37844;57.126;24.288;2023-06-22T00:27:22;15.35;;;10.85;;
51780;SDS011;37844;57.126;24.288;2023-06-22T00:30:06;15.13;;;11.60;;
51780;SDS011;37844;57.126;24.288;2023-06-22T00:32:51;20.55;;;12.20;;
51780;SDS011;37844;57.126;24.288;2023-06-22T00:35:35;16.23;;;10.73;;
51780;SDS011;37844;57.126;24.288;2023-06-22T00:38:19;19.83;;;11.77;;
51780;SDS011;37844;57.126;24.288;2023-06-22T00:41:04;20.48;;;11.80;;
51780;SDS011;37844;57.126;24.288;2023-06-22T00:43:49;19.73;;;10.88;;
51780;SDS011;37844;57.126;24.288;2023-06-22T00:46:33;18.40;;;11.68;;
51780;SDS011;37844;57.126;24.288;2023-06-22T00:49:17;27.17;;;10.82;;
51780;SDS011;37844;57.126;24.288;2023-06-22T00:52:01;18.80;;;10.60;;
51780;SDS011;37844;57.126;24.288;2023-06-22T00:54:47;24.45;;;11.77;;
51780;SDS011;37844;57.126;24.288;2023-06-22T00:57:32;22.55;;;11.43;;
51780;SDS011;37844;57.126;24.288;2023-06-22T01:00:16;18.00;;;11.35;;
51780;SDS011;37844;57.126;24.288;2023-06-22T01:03:03;17.13;;;11.27;;
51780;SDS011;37844;57.126;24.288;2023-06-22T01:05:52;18.85;;;10.77;;
51780;SDS011;37844;57.126;24.288;2023-06-22T01:08:49;20.60;;;10.65;;
51780;SDS011;37844;57.126;24.288;2023-06-22T01:11:39;13.52;;;9.95;;
51780;SDS011;37844;57.126;24.288;2023-06-22T01:14:37;24.80;;;11.23;;
51780;SDS011;37844;57.126;24.288;2023-06-22T01:17:22;16.05;;;11.20;;
51780;SDS011;37844;57.126;24.288;2023-06-22T01:20:08;21.58;;;11.18;;
51780;SDS011;37844;57.126;24.288;2023-06-22T01:28:58;18.60;;;11.82;;
51780;SDS011;37844;57.126;24.288;2023-06-22T01:31:43;17.15;;;10.43;;
51780;SDS011;37844;57.126;24.288;2023-06-22T01:34:29;18.05;;;10.00;;
51780;SDS011;37844;57.126;24.288;2023-06-22T01:37:15;19.30;;;10.75;;
51780;SDS011;37844;57.126;24.288;2023-06-22T01:40:00;18.35;;;10.98;;
51780;SDS011;37844;57.126;24.288;2023-06-22T01:42:45;17.60;;;10.80;;
51780;SDS011;37844;57.126;24.288;2023-06-22T01:45:29;16.10;;;10.50;;
51780;SDS011;37844;57.126;24.288;2023-06-22T01:48:13;16.98;;;9.60;;
51780;SDS011;37844;57.126;24.288;2023-06-22T01:50:58;19.65;;;10.57;;
51780;SDS011;37844;57.126;24.288;2023-06-22T01:53:43;14.57;;;10.32;;
51780;SDS011;37844;57.126;24.288;2023-06-22T01:56:27;20.35;;;10.98;;
51780;SDS011;37844;57.126;24.288;2023-06-22T01:59:12;15.45;;;10.35;;
51780;SDS011;37844;57.126;24.288;2023-06-22T02:02:09;15.07;;;11.75;;
51780;SDS011;37844;57.126;24.288;2023-06-22T02:05:16;16.63;;;10.68;;
51780;SDS011;37844;57.126;24.288;2023-06-22T02:08:09;17.55;;;11.88;;
51780;SDS011;37844;57.126;24.288;2023-06-22T02:10:56;15.27;;;11.18;;
51780;SDS011;37844;57.126;24.288;2023-06-22T02:13:44;26.50;;;10.90;;
51780;SDS011;37844;57.126;24.288;2023-06-22T02:16:32;14.75;;;10.68;;
51780;SDS011;37844;57.126;24.288;2023-06-22T02:19:27;15.63;;;10.50;;
51780;SDS011;37844;57.126;24.288;2023-06-22T02:22:17;13.77;;;10.18;;
51780;SDS011;37844;57.126;24.288;2023-06-22T02:25:02;19.70;;;9.90;;
51780;SDS011;37844;57.126;24.288;2023-06-22T02:27:46;17.63;;;10.90;;
51780;SDS011;37844;57.126;24.288;2023-06-22T02:30:30;19.92;;;11.95;;
51780;SDS011;37844;57.126;24.288;2023-06-22T02:33:15;25.02;;;11.30;;
51780;SDS011;37844;57.126;24.288;2023-06-22T02:35:59;18.55;;;10.02;;
51780;SDS011;37844;57.126;24.288;2023-06-22T02:38:44;16.30;;;10.95;;
51780;SDS011;37844;57.126;24.288;2023-06-22T02:41:31;18.38;;;11.48;;
51780;SDS011;37844;57.126;24.288;2023-06-22T02:44:15;19.02;;;11.55;;
51780;SDS011;37844;57.126;24.288;2023-06-22T02:47:00;14.35;;;11.35;;
51780;SDS011;37844;57.126;24.288;2023-06-22T02:49:44;14.75;;;12.18;;
51780;SDS011;37844;57.126;24.288;2023-06-22T02:52:29;15.73;;;12.27;;
51780;SDS011;37844;57.126;24.288;2023-06-22T02:55:13;19.67;;;13.48;;
51780;SDS011;37844;57.126;24.288;2023-06-22T02:57:58;19.75;;;11.65;;
51780;SDS011;37844;57.126;24.288;2023-06-22T03:00:43;17.17;;;11.02;;
51780;SDS011;37844;57.126;24.288;2023-06-22T03:03:27;16.83;;;11.82;;
51780;SDS011;37844;57.126;24.288;2023-06-22T03:06:15;17.08;;;10.93;;
51780;SDS011;37844;57.126;24.288;2023-06-22T03:09:00;18.00;;;12.32;;
51780;SDS011;37844;57.126;24.288;2023-06-22T03:11:47;16.00;;;11.93;;
51780;SDS011;37844;57.126;24.288;2023-06-22T03:14:31;16.75;;;11.45;;
51780;SDS011;37844;57.126;24.288;2023-06-22T03:17:15;20.10;;;12.13;;
51780;SDS011;37844;57.126;24.288;2023-06-22T03:19:59;15.18;;;11.45;;
51780;SDS011;37844;57.126;24.288;2023-06-22T03:22:43;18.33;;;12.10;;
51780;SDS011;37844;57.126;24.288;2023-06-22T03:25:27;20.98;;;13.40;;
51780;SDS011;37844;57.126;24.288;2023-06-22T03:28:11;25.33;;;13.23;;
51780;SDS011;37844;57.126;24.288;2023-06-22T03:30:59;30.77;;;19.02;;
51780;SDS011;37844;57.126;24.288;2023-06-22T03:33:43;27.83;;;13.70;;
51780;SDS011;37844;57.126;24.288;2023-06-22T03:36:27;28.08;;;12.93;;
51780;SDS011;37844;57.126;24.288;2023-06-22T03:39:11;16.25;;;12.00;;
51780;SDS011;37844;57.126;24.288;2023-06-22T03:41:55;18.80;;;12.80;;
51780;SDS011;37844;57.126;24.288;2023-06-22T03:44:39;19.08;;;12.77;;
51780;SDS011;37844;57.126;24.288;2023-06-22T03:47:23;29.67;;;12.23;;
51780;SDS011;37844;57.126;24.288;2023-06-22T03:50:08;19.88;;;12.48;;
51780;SDS011;37844;57.126;24.288;2023-06-22T03:52:52;18.42;;;13.45;;
51780;SDS011;37844;57.126;24.288;2023-06-22T03:55:36;22.30;;;12.23;;
51780;SDS011;37844;57.126;24.288;2023-06-22T03:58:20;15.95;;;12.63;;
51780;SDS011;37844;57.126;24.288;2023-06-22T04:01:05;21.23;;;16.77;;
51780;SDS011;37844;57.126;24.288;2023-06-22T04:03:50;21.25;;;11.65;;
51780;SDS011;37844;57.126;24.288;2023-06-22T04:06:34;17.65;;;12.05;;
51780;SDS011;37844;57.126;24.288;2023-06-22T04:09:18;19.83;;;13.50;;
51780;SDS011;37844;57.126;24.288;2023-06-22T04:12:03;21.48;;;12.30;;
51780;SDS011;37844;57.126;24.288;2023-06-22T04:14:47;21.20;;;12.80;;
51780;SDS011;37844;57.126;24.288;2023-06-22T04:17:31;25.90;;;12.93;;
51780;SDS011;37844;57.126;24.288;2023-06-22T04:20:15;18.13;;;14.35;;
51780;SDS011;37844;57.126;24.288;2023-06-22T04:22:59;15.55;;;12.35;;
51780;SDS011;37844;57.126;24.288;2023-06-22T04:25:44;25.60;;;13.80;;
51780;SDS011;37844;57.126;24.288;2023-06-22T04:28:27;23.38;;;13.57;;
51780;SDS011;37844;57.126;24.288;2023-06-22T04:31:11;24.42;;;13.75;;
51780;SDS011;37844;57.126;24.288;2023-06-22T04:33:56;22.60;;;13.27;;
51780;SDS011;37844;57.126;24.288;2023-06-22T04:36:40;16.83;;;12.70;;
51780;SDS011;37844;57.126;24.288;2023-06-22T04:39:25;18.20;;;12.70;;
51780;SDS011;37844;57.126;24.288;2023-06-22T04:42:11;17.77;;;12.00;;
51780;SDS011;37844;57.126;24.288;2023-06-22T04:44:56;21.48;;;13.55;;
51780;SDS011;37844;57.126;24.288;2023-06-22T04:47:40;20.02;;;12.48;;
51780;SDS011;37844;57.126;24.288;2023-06-22T04:50:31;17.10;;;14.23;;
51780;SDS011;37844;57.126;24.288;2023-06-22T04:53:18;16.80;;;12.95;;
51780;SDS011;37844;57.126;24.288;2023-06-22T04:56:13;21.90;;;13.40;;
51780;SDS011;37844;57.126;24.288;2023-06-22T04:59:00;18.95;;;13.35;;
51780;SDS011;37844;57.126;24.288;2023-06-22T05:01:45;19.38;;;16.30;;
51780;SDS011;37844;57.126;24.288;2023-06-22T05:04:29;18.75;;;13.40;;
51780;SDS011;37844;57.126;24.288;2023-06-22T05:07:19;19.08;;;16.35;;
51780;SDS011;37844;57.126;24.288;2023-06-22T05:10:03;32.00;;;16.33;;
51780;SDS011;37844;57.126;24.288;2023-06-22T05:12:48;21.73;;;16.63;;
51780;SDS011;37844;57.126;24.288;2023-06-22T05:15:32;18.58;;;15.73;;
51780;SDS011;37844;57.126;24.288;2023-06-22T05:18:20;20.45;;;16.95;;
51780;SDS011;37844;57.126;24.288;2023-06-22T05:21:07;21.35;;;16.15;;
51780;SDS011;37844;57.126;24.288;2023-06-22T05:23:52;21.80;;;16.23;;
51780;SDS011;37844;57.126;24.288;2023-06-22T05:26:37;23.60;;;15.38;;
51780;SDS011;37844;57.126;24.288;2023-06-22T05:29:21;18.92;;;16.80;;
51780;SDS011;37844;57.126;24.288;2023-06-22T05:32:05;25.00;;;17.85;;
51780;SDS011;37844;57.126;24.288;2023-06-22T05:34:50;18.85;;;16.35;;
51780;SDS011;37844;57.126;24.288;2023-06-22T05:37:34;20.67;;;15.60;;
51780;SDS011;37844;57.126;24.288;2023-06-22T05:40:18;21.70;;;17.40;;
51780;SDS011;37844;57.126;24.288;2023-06-22T05:43:02;20.70;;;16.15;;
51780;SDS011;37844;57.126;24.288;2023-06-22T05:45:46;23.65;;;19.20;;
51780;SDS011;37844;57.126;24.288;2023-06-22T05:48:30;25.30;;;22.13;;
51780;SDS011;37844;57.126;24.288;2023-06-22T05:51:15;23.95;;;21.35;;
51780;SDS011;37844;57.126;24.288;2023-06-22T05:53:59;25.90;;;21.15;;
51780;SDS011;37844;57.126;24.288;2023-06-22T05:56:43;24.85;;;20.45;;
51780;SDS011;37844;57.126;24.288;2023-06-22T05:59:27;24.05;;;21.05;;
51780;SDS011;37844;57.126;24.288;2023-06-22T06:02:11;26.05;;;19.95;;
51780;SDS011;37844;57.126;24.288;2023-06-22T06:04:55;21.67;;;16.65;;
51780;SDS011;37844;57.126;24.288;2023-06-22T06:07:39;20.25;;;17.83;;
51780;SDS011;37844;57.126;24.288;2023-06-22T06:10:23;20.65;;;18.45;;
51780;SDS011;37844;57.126;24.288;2023-06-22T06:13:08;24.80;;;16.45;;
51780;SDS011;37844;57.126;24.288;2023-06-22T06:15:53;22.77;;;15.60;;
51780;SDS011;37844;57.126;24.288;2023-06-22T06:18:39;26.40;;;16.67;;
51780;SDS011;37844;57.126;24.288;2023-06-22T06:21:23;24.80;;;18.13;;
51780;SDS011;37844;57.126;24.288;2023-06-22T06:24:07;17.05;;;14.98;;
51780;SDS011;37844;57.126;24.288;2023-06-22T06:26:51;20.02;;;15.60;;
51780;SDS011;37844;57.126;24.288;2023-06-22T06:29:36;22.70;;;18.10;;
51780;SDS011;37844;57.126;24.288;2023-06-22T06:32:20;26.10;;;17.65;;
51780;SDS011;37844;57.126;24.288;2023-06-22T06:35:05;21.80;;;16.88;;
51780;SDS011;37844;57.126;24.288;2023-06-22T06:37:50;21.83;;;18.00;;
51780;SDS011;37844;57.126;24.288;2023-06-22T06:40:34;23.90;;;18.58;;
51780;SDS011;37844;57.126;24.288;2023-06-22T06:43:18;24.75;;;17.17;;
51780;SDS011;37844;57.126;24.288;2023-06-22T06:46:02;22.35;;;19.65;;
51780;SDS011;37844;57.126;24.288;2023-06-22T06:48:47;24.85;;;19.75;;
51780;SDS011;37844;57.126;24.288;2023-06-22T06:51:31;21.33;;;19.05;;
51780;SDS011;37844;57.126;24.288;2023-06-22T06:54:15;23.35;;;19.17;;
51780;SDS011;37844;57.126;24.288;2023-06-22T06:57:02;24.77;;;20.80;;
51780;SDS011;37844;57.126;24.288;2023-06-22T06:59:47;21.92;;;18.92;;
51780;SDS011;37844;57.126;24.288;2023-06-22T07:02:31;24.17;;;19.40;;
51780;SDS011;37844;57.126;24.288;2023-06-22T07:05:18;25.83;;;20.00;;
51780;SDS011;37844;57.126;24.288;2023-06-22T07:08:02;20.77;;;18.25;;
51780;SDS011;37844;57.126;24.288;2023-06-22T07:10:47;25.70;;;19.60;;
51780;SDS011;37844;57.126;24.288;2023-06-22T07:13:31;25.05;;;17.95;;
51780;SDS011;37844;57.126;24.288;2023-06-22T07:16:15;26.73;;;19.67;;
51780;SDS011;37844;57.126;24.288;2023-06-22T07:18:59;20.52;;;16.48;;
51780;SDS011;37844;57.126;24.288;2023-06-22T07:21:49;21.17;;;16.92;;
51780;SDS011;37844;57.126;24.288;2023-06-22T07:24:37;20.45;;;15.45;;
51780;SDS011;37844;57.126;24.288;2023-06-22T07:27:21;19.15;;;13.70;;
51780;SDS011;37844;57.126;24.288;2023-06-22T07:30:05;18.42;;;13.10;;
51780;SDS011;37844;57.126;24.288;2023-06-22T07:32:50;15.68;;;12.18;;
51780;SDS011;37844;57.126;24.288;2023-06-22T07:35:34;14.90;;;12.32;;
51780;SDS011;37844;57.126;24.288;2023-06-22T07:38:18;16.92;;;11.70;;
51780;SDS011;37844;57.126;24.288;2023-06-22T07:41:02;14.52;;;11.48;;
51780;SDS011;37844;57.126;24.288;2023-06-22T07:43:49;19.42;;;11.55;;
51780;SDS011;37844;57.126;24.288;2023-06-22T07:46:33;15.00;;;12.52;;
51780;SDS011;37844;57.126;24.288;2023-06-22T07:49:17;14.82;;;11.13;;
51780;SDS011;37844;57.126;24.288;2023-06-22T07:52:01;16.10;;;12.70;;
51780;SDS011;37844;57.126;24.288;2023-06-22T07:54:46;36.08;;;12.00;;
51780;SDS011;37844;57.126;24.288;2023-06-22T07:57:30;13.90;;;11.27;;
51780;SDS011;37844;57.126;24.288;2023-06-22T08:00:18;16.23;;;12.57;;
51780;SDS011;37844;57.126;24.288;2023-06-22T08:03:02;16.63;;;11.73;;
51780;SDS011;37844;57.126;24.288;2023-06-22T08:05:48;15.88;;;12.80;;
51780;SDS011;37844;57.126;24.288;2023-06-22T08:08:33;17.85;;;12.95;;
51780;SDS011;37844;57.126;24.288;2023-06-22T08:11:17;19.42;;;14.50;;
51780;SDS011;37844;57.126;24.288;2023-06-22T08:14:02;21.55;;;14.55;;
51780;SDS011;37844;57.126;24.288;2023-06-22T08:16:46;17.88;;;15.43;;
51780;SDS011;37844;57.126;24.288;2023-06-22T08:19:31;18.50;;;15.00;;
51780;SDS011;37844;57.126;24.288;2023-06-22T08:22:17;18.85;;;16.52;;
51780;SDS011;37844;57.126;24.288;2023-06-22T08:25:03;21.10;;;18.27;;
51780;SDS011;37844;57.126;24.288;2023-06-22T08:27:50;21.08;;;18.25;;
51780;SDS011;37844;57.126;24.288;2023-06-22T08:30:38;22.77;;;19.63;;
51780;SDS011;37844;57.126;24.288;2023-06-22T08:33:22;23.52;;;18.85;;
51780;SDS011;37844;57.126;24.288;2023-06-22T08:36:11;23.75;;;18.98;;
51780;SDS011;37844;57.126;24.288;2023-06-22T08:38:57;20.98;;;18.55;;
51780;SDS011;37844;57.126;24.288;2023-06-22T08:41:47;22.92;;;19.90;;
51780;SDS011;37844;57.126;24.288;2023-06-22T08:44:31;27.92;;;19.92;;
51780;SDS011;37844;57.126;24.288;2023-06-22T08:47:15;27.27;;;21.75;;
51780;SDS011;37844;57.126;24.288;2023-06-22T08:49:59;28.52;;;20.52;;
51780;SDS011;37844;57.126;24.288;2023-06-22T08:52:46;24.75;;;20.80;;
51780;SDS011;37844;57.126;24.288;2023-06-22T08:55:30;24.08;;;20.92;;
51780;SDS011;37844;57.126;24.288;2023-06-22T08:58:15;25.88;;;21.63;;
51780;SDS011;37844;57.126;24.288;2023-06-22T09:00:59;26.60;;;21.75;;
51780;SDS011;37844;57.126;24.288;2023-06-22T09:03:45;34.88;;;24.58;;
51780;SDS011;37844;57.126;24.288;2023-06-22T09:06:39;26.85;;;23.40;;
51780;SDS011;37844;57.126;24.288;2023-06-22T09:12:12;37.00;;;24.98;;
51780;SDS011;37844;57.126;24.288;2023-06-22T09:14:56;34.40;;;26.88;;
51780;SDS011;37844;57.126;24.288;2023-06-22T09:17:43;31.98;;;26.27;;
51780;SDS011;37844;57.126;24.288;2023-06-22T09:20:27;31.25;;;27.17;;
51780;SDS011;37844;57.126;24.288;2023-06-22T09:23:11;31.85;;;28.52;;
51780;SDS011;37844;57.126;24.288;2023-06-22T09:25:55;38.60;;;26.67;;
51780;SDS011;37844;57.126;24.288;2023-06-22T09:28:39;35.78;;;29.50;;
51780;SDS011;37844;57.126;24.288;2023-06-22T09:31:23;35.97;;;28.60;;
51780;SDS011;37844;57.126;24.288;2023-06-22T09:34:10;29.70;;;26.20;;
51780;SDS011;37844;57.126;24.288;2023-06-22T09:36:54;38.15;;;28.17;;
51780;SDS011;37844;57.126;24.288;2023-06-22T09:39:38;35.30;;;28.55;;
51780;SDS011;37844;57.126;24.288;2023-06-22T09:42:23;30.48;;;27.15;;
51780;SDS011;37844;57.126;24.288;2023-06-22T09:45:07;33.72;;;24.88;;
51780;SDS011;37844;57.126;24.288;2023-06-22T09:47:51;25.42;;;22.60;;
51780;SDS011;37844;57.126;24.288;2023-06-22T09:50:35;32.63;;;25.27;;
51780;SDS011;37844;57.126;24.288;2023-06-22T09:53:20;29.48;;;24.88;;
51780;SDS011;37844;57.126;24.288;2023-06-22T09:56:05;30.77;;;27.42;;
51780;SDS011;37844;57.126;24.288;2023-06-22T09:58:49;35.42;;;25.92;;
51780;SDS011;37844;57.126;24.288;2023-06-22T10:01:36;34.83;;;26.40;;
51780;SDS011;37844;57.126;24.288;2023-06-22T10:04:20;33.70;;;26.85;;
51780;SDS011;37844;57.126;24.288;2023-06-22T10:07:04;27.30;;;24.00;;
51780;SDS011;37844;57.126;24.288;2023-06-22T10:09:49;29.48;;;26.25;;
51780;SDS011;37844;57.126;24.288;2023-06-22T10:12:32;28.20;;;25.30;;
51780;SDS011;37844;57.126;24.288;2023-06-22T10:15:16;35.17;;;28.70;;
51780;SDS011;37844;57.126;24.288;2023-06-22T10:18:00;39.55;;;29.05;;
51780;SDS011;37844;57.126;24.288;2023-06-22T10:20:47;33.15;;;26.23;;
51780;SDS011;37844;57.126;24.288;2023-06-22T10:23:32;32.20;;;26.67;;
51780;SDS011;37844;57.126;24.288;2023-06-22T10:26:16;38.13;;;28.85;;
51780;SDS011;37844;57.126;24.288;2023-06-22T10:29:00;33.47;;;26.85;;
51780;SDS011;37844;57.126;24.288;2023-06-22T10:31:46;29.35;;;26.02;;
51780;SDS011;37844;57.126;24.288;2023-06-22T10:34:30;31.40;;;27.27;;
51780;SDS011;37844;57.126;24.288;2023-06-22T10:37:14;29.95;;;26.65;;
51780;SDS011;37844;57.126;24.288;2023-06-22T10:39:58;35.55;;;27.35;;
51780;SDS011;37844;57.126;24.288;2023-06-22T10:42:43;33.53;;;27.38;;
51780;SDS011;37844;57.126;24.288;2023-06-22T10:45:27;30.17;;;25.90;;
51780;SDS011;37844;57.126;24.288;2023-06-22T10:48:11;28.98;;;24.75;;
51780;SDS011;37844;57.126;24.288;2023-06-22T10:50:55;29.23;;;24.23;;
51780;SDS011;37844;57.126;24.288;2023-06-22T10:53:39;35.97;;;25.42;;
51780;SDS011;37844;57.126;24.288;2023-06-22T10:56:23;31.75;;;24.50;;
51780;SDS011;37844;57.126;24.288;2023-06-22T10:59:07;31.35;;;26.08;;
51780;SDS011;37844;57.126;24.288;2023-06-22T11:01:52;32.15;;;26.88;;
51780;SDS011;37844;57.126;24.288;2023-06-22T11:04:37;32.65;;;23.85;;
51780;SDS011;37844;57.126;24.288;2023-06-22T11:07:21;25.42;;;22.67;;
51780;SDS011;37844;57.126;24.288;2023-06-22T11:10:05;30.52;;;24.27;;
51780;SDS011;37844;57.126;24.288;2023-06-22T11:12:50;28.40;;;24.45;;
51780;SDS011;37844;57.126;24.288;2023-06-22T11:15:38;27.25;;;24.35;;
51780;SDS011;37844;57.126;24.288;2023-06-22T11:18:25;31.02;;;24.50;;
51780;SDS011;37844;57.126;24.288;2023-06-22T11:21:09;30.67;;;24.20;;
51780;SDS011;37844;57.126;24.288;2023-06-22T11:23:53;35.97;;;23.80;;
51780;SDS011;37844;57.126;24.288;2023-06-22T11:26:38;27.42;;;22.25;;
51780;SDS011;37844;57.126;24.288;2023-06-22T11:29:22;26.00;;;22.98;;
51780;SDS011;37844;57.126;24.288;2023-06-22T11:32:07;31.58;;;24.05;;
51780;SDS011;37844;57.126;24.288;2023-06-22T11:34:51;28.08;;;23.02;;
51780;SDS011;37844;57.126;24.288;2023-06-22T11:37:35;43.03;;;31.55;;
51780;SDS011;37844;57.126;24.288;2023-06-22T11:40:20;33.88;;;26.55;;
51780;SDS011;37844;57.126;24.288;2023-06-22T11:43:04;29.48;;;23.88;;
51780;SDS011;37844;57.126;24.288;2023-06-22T11:45:48;30.42;;;24.73;;
51780;SDS011;37844;57.126;24.288;2023-06-22T11:48:32;33.95;;;26.77;;
51780;SDS011;37844;57.126;24.288;2023-06-22T11:51:16;29.80;;;24.35;;
51780;SDS011;37844;57.126;24.288;2023-06-22T11:54:00;36.78;;;25.10;;
51780;SDS011;37844;57.126;24.288;2023-06-22T11:56:46;27.20;;;21.58;;
51780;SDS011;37844;57.126;24.288;2023-06-22T11:59:31;39.28;;;24.67;;
51780;SDS011;37844;57.126;24.288;2023-06-22T12:02:19;29.88;;;23.30;;
51780;SDS011;37844;57.126;24.288;2023-06-22T12:05:06;26.58;;;20.40;;
51780;SDS011;37844;57.126;24.288;2023-06-22T12:07:55;32.67;;;20.52;;
51780;SDS011;37844;57.126;24.288;2023-06-22T12:10:39;28.35;;;20.65;;
51780;SDS011;37844;57.126;24.288;2023-06-22T12:13:36;27.52;;;20.65;;
51780;SDS011;37844;57.126;24.288;2023-06-22T12:16:21;30.08;;;21.10;;
51780;SDS011;37844;57.126;24.288;2023-06-22T12:19:05;23.30;;;19.75;;
51780;SDS011;37844;57.126;24.288;2023-06-22T12:21:49;24.17;;;18.73;;
51780;SDS011;37844;57.126;24.288;2023-06-22T12:24:33;21.25;;;17.75;;
51780;SDS011;37844;57.126;24.288;2023-06-22T12:27:17;22.08;;;18.48;;
51780;SDS011;37844;57.126;24.288;2023-06-22T12:30:02;23.17;;;17.92;;
51780;SDS011;37844;57.126;24.288;2023-06-22T12:32:47;24.90;;;18.45;;
51780;SDS011;37844;57.126;24.288;2023-06-22T12:35:32;26.27;;;18.73;;
51780;SDS011;37844;57.126;24.288;2023-06-22T12:38:16;43.40;;;27.25;;
51780;SDS011;37844;57.126;24.288;2023-06-22T12:41:04;23.77;;;18.67;;
51780;SDS011;37844;57.126;24.288;2023-06-22T12:43:48;41.83;;;19.48;;
51780;SDS011;37844;57.126;24.288;2023-06-22T12:46:32;24.77;;;18.20;;
51780;SDS011;37844;57.126;24.288;2023-06-22T12:49:21;28.83;;;20.05;;
51780;SDS011;37844;57.126;24.288;2023-06-22T12:52:11;26.20;;;18.67;;
51780;SDS011;37844;57.126;24.288;2023-06-22T12:54:55;21.65;;;15.82;;
51780;SDS011;37844;57.126;24.288;2023-06-22T12:57:39;20.02;;;17.42;;
51780;SDS011;37844;57.126;24.288;2023-06-22T13:00:23;26.73;;;18.83;;
51780;SDS011;37844;57.126;24.288;2023-06-22T13:03:07;30.80;;;17.40;;
51780;SDS011;37844;57.126;24.288;2023-06-22T13:05:51;19.83;;;16.20;;
51780;SDS011;37844;57.126;24.288;2023-06-22T13:08:35;31.90;;;18.27;;
51780;SDS011;37844;57.126;24.288;2023-06-22T13:11:20;22.15;;;18.33;;
51780;SDS011;37844;57.126;24.288;2023-06-22T13:14:05;25.17;;;18.42;;
51780;SDS011;37844;57.126;24.288;2023-06-22T13:16:49;28.48;;;17.38;;
51780;SDS011;37844;57.126;24.288;2023-06-22T13:19:33;20.90;;;16.75;;
51780;SDS011;37844;57.126;24.288;2023-06-22T13:22:28;23.27;;;16.20;;
51780;SDS011;37844;57.126;24.288;2023-06-22T13:25:16;16.40;;;14.48;;
51780;SDS011;37844;57.126;24.288;2023-06-22T13:28:03;20.92;;;15.73;;
51780;SDS011;37844;57.126;24.288;2023-06-22T13:30:50;18.00;;;15.25;;
51780;SDS011;37844;57.126;24.288;2023-06-22T13:33:34;21.27;;;16.58;;
51780;SDS011;37844;57.126;24.288;2023-06-22T13:36:19;19.40;;;16.15;;
51780;SDS011;37844;57.126;24.288;2023-06-22T13:39:03;24.17;;;17.40;;
51780;SDS011;37844;57.126;24.288;2023-06-22T13:41:48;21.45;;;17.13;;
51780;SDS011;37844;57.126;24.288;2023-06-22T13:44:32;22.58;;;17.58;;
51780;SDS011;37844;57.126;24.288;2023-06-22T13:47:17;24.60;;;17.00;;
51780;SDS011;37844;57.126;24.288;2023-06-22T13:50:02;24.77;;;16.92;;
51780;SDS011;37844;57.126;24.288;2023-06-22T13:52:46;21.77;;;17.67;;
51780;SDS011;37844;57.126;24.288;2023-06-22T13:55:30;22.33;;;16.42;;
51780;SDS011;37844;57.126;24.288;2023-06-22T13:58:15;26.52;;;17.42;;
51780;SDS011;37844;57.126;24.288;2023-06-22T14:00:59;22.40;;;16.65;;
51780;SDS011;37844;57.126;24.288;2023-06-22T14:03:43;26.42;;;17.55;;
51780;SDS011;37844;57.126;24.288;2023-06-22T14:06:30;19.92;;;15.57;;
51780;SDS011;37844;57.126;24.288;2023-06-22T14:09:14;21.25;;;16.52;;
51780;SDS011;37844;57.126;24.288;2023-06-22T14:12:02;22.45;;;15.85;;
51780;SDS011;37844;57.126;24.288;2023-06-22T14:14:50;19.02;;;15.38;;
51780;SDS011;37844;57.126;24.288;2023-06-22T14:17:34;28.33;;;15.32;;
51780;SDS011;37844;57.126;24.288;2023-06-22T14:20:18;16.63;;;14.32;;
51780;SDS011;37844;57.126;24.288;2023-06-22T14:23:02;15.00;;;11.98;;
51780;SDS011;37844;57.126;24.288;2023-06-22T14:25:46;16.83;;;13.10;;
51780;SDS011;37844;57.126;24.288;2023-06-22T14:28:31;14.77;;;11.07;;
51780;SDS011;37844;57.126;24.288;2023-06-22T14:31:16;15.48;;;11.18;;
51780;SDS011;37844;57.126;24.288;2023-06-22T14:34:00;15.35;;;12.05;;
51780;SDS011;37844;57.126;24.288;2023-06-22T14:36:49;15.20;;;11.10;;
51780;SDS011;37844;57.126;24.288;2023-06-22T14:39:34;15.18;;;9.98;;
51780;SDS011;37844;57.126;24.288;2023-06-22T14:42:18;12.95;;;10.18;;
51780;SDS011;37844;57.126;24.288;2023-06-22T14:45:02;16.73;;;10.20;;
51780;SDS011;37844;57.126;24.288;2023-06-22T14:47:50;16.63;;;10.45;;
51780;SDS011;37844;57.126;24.288;2023-06-22T14:50:34;18.13;;;9.13;;
51780;SDS011;37844;57.126;24.288;2023-06-22T14:53:18;13.77;;;10.10;;
51780;SDS011;37844;57.126;24.288;2023-06-22T14:56:03;12.90;;;8.68;;
51780;SDS011;37844;57.126;24.288;2023-06-22T14:58:50;12.30;;;7.90;;
51780;SDS011;37844;57.126;24.288;2023-06-22T15:01:38;14.95;;;9.45;;
51780;SDS011;37844;57.126;24.288;2023-06-22T15:04:22;14.27;;;7.65;;
51780;SDS011;37844;57.126;24.288;2023-06-22T15:07:06;14.00;;;8.52;;
51780;SDS011;37844;57.126;24.288;2023-06-22T15:09:50;12.15;;;8.38;;
51780;SDS011;37844;57.126;24.288;2023-06-22T15:12:34;17.50;;;8.10;;
51780;SDS011;37844;57.126;24.288;2023-06-22T15:15:18;11.88;;;7.55;;
51780;SDS011;37844;57.126;24.288;2023-06-22T15:18:03;12.85;;;6.85;;
51780;SDS011;37844;57.126;24.288;2023-06-22T15:20:48;9.98;;;6.35;;
51780;SDS011;37844;57.126;24.288;2023-06-22T15:23:32;11.98;;;8.50;;
51780;SDS011;37844;57.126;24.288;2023-06-22T15:26:17;16.58;;;10.77;;
51780;SDS011;37844;57.126;24.288;2023-06-22T15:29:01;11.13;;;7.50;;
51780;SDS011;37844;57.126;24.288;2023-06-22T15:31:52;14.85;;;6.90;;
51780;SDS011;37844;57.126;24.288;2023-06-22T15:34:37;16.92;;;7.43;;
51780;SDS011;37844;57.126;24.288;2023-06-22T15:37:28;12.20;;;7.63;;
51780;SDS011;37844;57.126;24.288;2023-06-22T15:40:13;10.10;;;6.88;;
51780;SDS011;37844;57.126;24.288;2023-06-22T15:42:57;13.85;;;6.47;;
51780;SDS011;37844;57.126;24.288;2023-06-22T15:45:41;10.68;;;6.90;;
51780;SDS011;37844;57.126;24.288;2023-06-22T15:48:33;14.80;;;6.35;;
51780;SDS011;37844;57.126;24.288;2023-06-22T15:51:17;11.27;;;6.93;;
51780;SDS011;37844;57.126;24.288;2023-06-22T15:54:01;18.05;;;6.78;;
51780;SDS011;37844;57.126;24.288;2023-06-22T15:56:45;11.45;;;6.03;;
51780;SDS011;37844;57.126;24.288;2023-06-22T15:59:30;13.38;;;6.32;;
51780;SDS011;37844;57.126;24.288;2023-06-22T16:02:14;8.80;;;5.38;;
51780;SDS011;37844;57.126;24.288;2023-06-22T16:04:58;12.27;;;6.40;;